CST,Max TemperatureF,Mean TemperatureF,Min TemperatureF,Max Dew PointF,MeanDew PointF,Min DewpointF,Max Humidity, Mean Humidity, Min Humidity, Max Sea Level PressureIn, Mean Sea Level PressureIn, Min Sea Level PressureIn, Max VisibilityMiles, Mean VisibilityMiles, Min VisibilityMiles, Max Wind SpeedMPH, Mean Wind SpeedMPH, Max Gust SpeedMPH,PrecipitationIn, CloudCover, Events, WindDirDegrees
2013-1-1,37,28,19,37,29,17,100,91,79,30.32,30.21,30.06,10,5,1,15,9,,0.00,7,Rain-Snow,347
2013-1-2,39,28,17,27,22,15,92,76,59,30.33,30.29,30.21,10,10,8,12,3,16,0.00,1,,238
2013-1-3,45,34,23,29,24,21,92,73,45,30.48,30.42,30.32,10,10,8,10,2,,0.00,1,,289
2013-1-4,50,35,20,26,23,19,92,64,36,30.48,30.41,30.33,10,10,8,15,6,18,0.00,1,,185
2013-1-5,48,37,26,33,30,25,85,69,53,30.32,30.25,30.17,10,10,9,17,8,22,T,5,Rain,199
2013-1-6,49,37,24,25,21,19,82,57,31,30.44,30.36,30.30,10,10,10,13,5,18,0.00,0,,336
2013-1-7,52,36,20,29,25,17,84,62,39,30.35,30.23,30.11,10,10,10,20,8,23,0.00,0,,165
2013-1-8,57,45,33,46,36,26,93,70,47,30.19,30.11,30.03,10,8,2,20,7,23,0.08,5,Rain,160
2013-1-9,55,50,45,46,44,38,100,76,51,30.34,30.24,30.16,10,5,2,14,9,18,0.01,8,Rain,22
2013-1-10,57,53,49,55,50,43,100,92,83,30.13,29.89,29.80,10,6,1,16,7,22,0.21,7,Rain,142
2013-1-11,70,58,46,49,45,43,93,67,40,29.84,29.76,29.65,10,10,10,24,16,31,0.00,1,,175
2013-1-12,62,44,25,50,28,20,92,61,30,30.09,29.95,29.81,10,9,2,28,16,37,0.32,7,Rain,352
2013-1-13,32,26,19,21,16,12,81,65,49,30.42,30.28,30.07,10,10,10,21,11,26,0.00,1,,353
2013-1-14,35,26,16,18,15,12,84,64,43,30.53,30.41,30.35,10,10,10,14,7,17,0.00,2,,21
2013-1-15,35,26,17,20,15,11,92,65,38,30.36,30.29,30.23,10,10,10,14,7,17,0.00,4,,348
2013-1-16,48,32,15,20,17,12,84,56,28,30.25,30.19,30.12,10,10,10,12,4,15,0.00,0,,227
2013-1-17,55,40,25,32,27,20,85,60,35,30.49,30.42,30.24,10,10,9,17,5,21,0.00,0,,352
2013-1-18,59,44,29,33,29,24,78,56,33,30.50,30.34,30.17,10,10,10,23,11,30,0.00,0,,174
2013-1-19,65,50,34,35,34,30,70,51,31,30.22,30.13,30.06,10,10,10,22,10,28,0.00,0,,213
2013-1-20,63,46,29,39,29,17,85,62,38,30.32,30.22,30.12,10,10,10,21,7,29,0.00,0,,9
2013-1-21,41,32,23,16,15,13,68,51,33,30.45,30.37,30.32,10,10,10,17,9,22,0.00,0,,24
2013-1-22,52,35,18,28,22,15,92,65,38,30.34,30.27,30.20,10,10,9,16,5,21,0.00,1,,154
2013-1-23,62,45,27,42,33,23,78,62,46,30.27,30.21,30.12,10,9,7,13,4,16,0.00,0,,122
2013-1-24,45,40,35,30,22,18,70,57,43,30.30,30.22,30.13,10,10,9,16,9,22,0.00,6,,10
2013-1-25,50,41,32,28,25,23,72,56,39,30.27,30.22,30.14,10,10,9,12,6,16,0.00,4,,352
2013-1-26,55,43,30,35,29,25,78,58,38,30.27,30.18,30.08,10,9,6,21,8,24,T,4,Rain,144
2013-1-27,62,54,46,56,50,37,93,82,71,30.11,29.94,29.85,10,8,3,23,16,30,0.01,7,Rain,167
2013-1-28,75,67,58,63,61,56,90,75,60,29.90,29.82,29.71,10,10,7,26,18,54,0.00,5,,177
2013-1-29,71,57,42,63,53,37,100,85,70,29.70,29.56,29.45,10,6,2,26,14,35,0.91,7,Rain-Thunderstorm,315
2013-1-30,42,35,27,37,28,22,86,68,50,30.09,29.85,29.60,10,10,7,30,13,38,T,6,Rain,309
2013-1-31,50,36,22,27,21,11,81,62,42,30.50,30.22,30.04,10,10,8,25,9,30,0.00,1,,13